createdAt,value
2022-08-22T00:02:13.013Z,19.8
2022-08-22T00:22:12.998Z,19.9
2022-08-22T00:42:12.971Z,19.8
2022-08-22T01:22:12.856Z,18.8
2022-08-22T01:42:12.897Z,19.0
2022-08-22T02:02:12.862Z,18.9
2022-08-22T02:22:12.847Z,18.6
2022-08-22T03:02:12.728Z,18.2
2022-08-22T03:22:12.776Z,18.3
2022-08-22T03:42:12.677Z,18.1
2022-08-22T04:02:12.654Z,17.8
2022-08-22T04:22:12.651Z,17.6
2022-08-22T05:02:12.620Z,17.6
2022-08-22T05:22:12.632Z,17.8
2022-08-22T05:42:12.535Z,17.9
2022-08-22T06:02:12.574Z,18.5
2022-08-22T06:22:12.501Z,18.4
2022-08-22T06:42:12.509Z,18.6
2022-08-22T07:02:12.448Z,19.2
2022-08-22T07:22:12.438Z,19.8
2022-08-22T07:42:12.394Z,20.5
2022-08-22T08:02:12.399Z,21.0
2022-08-22T08:22:12.326Z,21.5
2022-08-22T08:42:12.311Z,22.0
2022-08-22T09:02:12.341Z,23.1
2022-08-22T09:22:12.285Z,24.0
2022-08-22T09:42:12.298Z,24.8
2022-08-22T10:02:15.290Z,25.6
2022-08-22T10:22:12.265Z,26.5
2022-08-22T10:42:12.281Z,27.2
2022-08-22T11:02:12.149Z,27.5
2022-08-22T11:42:12.072Z,28.0
2022-08-22T12:42:12.068Z,29.5
2022-08-22T13:02:12.067Z,29.2
2022-08-22T13:22:12.043Z,28.3
2022-08-22T13:42:14.145Z,28.3
2022-08-22T14:02:15.128Z,29.2
2022-08-22T14:22:11.860Z,28.8
2022-08-22T14:42:11.903Z,29.4
2022-08-22T15:02:11.857Z,29.5
2022-08-22T15:22:11.817Z,29.1
2022-08-22T15:42:11.775Z,29.2
2022-08-22T16:02:11.720Z,29.1
2022-08-22T16:22:11.717Z,28.7
2022-08-22T16:42:11.789Z,28.8
2022-08-22T17:02:11.708Z,28.6
2022-08-22T17:22:11.629Z,28.3
2022-08-22T17:42:11.662Z,28.0
2022-08-22T18:02:11.651Z,27.0
2022-08-22T18:42:11.614Z,25.9
2022-08-22T19:02:11.574Z,25.4
2022-08-22T19:22:11.549Z,24.8
2022-08-22T19:42:11.494Z,24.3
2022-08-22T20:02:11.419Z,23.9
2022-08-22T20:42:11.390Z,23.8
2022-08-22T21:22:11.303Z,24.3
2022-08-22T22:02:11.250Z,24.0
2022-08-22T22:22:11.266Z,23.8
2022-08-22T22:42:11.264Z,23.5
2022-08-22T23:02:11.195Z,23.3
2022-08-22T23:22:11.233Z,23.1
2022-08-22T23:42:11.153Z,23.0
